sensor_id;sensor_type;location;lat;lon;timestamp;pressure;altitude;pressure_sealevel;temperature;humidity
13690;BME280;6917;52.194;9.894;2022-08-19T00:01:40;100107.66;;;18.44;100.00
13690;BME280;6917;52.194;9.894;2022-08-19T00:04:12;100110.38;;;18.40;100.00
13690;BME280;6917;52.194;9.894;2022-08-19T00:06:41;100096.16;;;18.42;100.00
13690;BME280;6917;52.194;9.894;2022-08-19T00:09:09;100095.75;;;18.40;100.00
13690;BME280;6917;52.194;9.894;2022-08-19T00:11:35;100092.09;;;18.36;100.00
13690;BME280;6917;52.194;9.894;2022-08-19T00:14:03;100088.13;;;18.33;100.00
13690;BME280;6917;52.194;9.894;2022-08-19T00:16:29;100091.69;;;18.34;100.00
13690;BME280;6917;52.194;9.894;2022-08-19T00:18:54;100085.25;;;18.26;100.00
13690;BME280;6917;52.194;9.894;2022-08-19T00:21:23;100093.84;;;18.21;100.00
13690;BME280;6917;52.194;9.894;2022-08-19T00:23:49;100094.59;;;18.18;100.00
13690;BME280;6917;52.194;9.894;2022-08-19T00:26:14;100088.66;;;18.16;100.00
13690;BME280;6917;52.194;9.894;2022-08-19T00:28:40;100084.63;;;18.10;100.00
13690;BME280;6917;52.194;9.894;2022-08-19T00:31:07;100085.41;;;18.10;100.00
13690;BME280;6917;52.194;9.894;2022-08-19T00:33:33;100091.31;;;18.09;100.00
13690;BME280;6917;52.194;9.894;2022-08-19T00:36:05;100086.94;;;18.08;100.00
13690;BME280;6917;52.194;9.894;2022-08-19T00:38:31;100079.75;;;18.03;100.00
13690;BME280;6917;52.194;9.894;2022-08-19T00:40:57;100078.09;;;17.99;100.00
13690;BME280;6917;52.194;9.894;2022-08-19T00:43:25;100081.63;;;17.96;100.00
13690;BME280;6917;52.194;9.894;2022-08-19T00:45:51;100071.28;;;17.93;100.00
13690;BME280;6917;52.194;9.894;2022-08-19T00:48:17;100076.38;;;17.91;100.00
13690;BME280;6917;52.194;9.894;2022-08-19T00:50:44;100081.91;;;17.91;100.00
13690;BME280;6917;52.194;9.894;2022-08-19T00:53:12;100079.53;;;17.89;100.00
13690;BME280;6917;52.194;9.894;2022-08-19T00:55:41;100083.81;;;17.87;100.00
13690;BME280;6917;52.194;9.894;2022-08-19T00:58:11;100090.94;;;17.88;100.00
13690;BME280;6917;52.194;9.894;2022-08-19T01:00:37;100082.28;;;17.89;100.00
13690;BME280;6917;52.194;9.894;2022-08-19T01:03:09;100081.13;;;17.90;100.00
13690;BME280;6917;52.194;9.894;2022-08-19T01:05:36;100076.81;;;17.93;100.00
13690;BME280;6917;52.194;9.894;2022-08-19T01:08:04;100085.09;;;17.93;100.00
13690;BME280;6917;52.194;9.894;2022-08-19T01:10:36;100100.97;;;17.96;100.00
13690;BME280;6917;52.194;9.894;2022-08-19T01:13:03;100091.09;;;17.95;100.00
13690;BME280;6917;52.194;9.894;2022-08-19T01:15:32;100089.84;;;17.92;100.00
13690;BME280;6917;52.194;9.894;2022-08-19T01:18:01;100087.53;;;17.94;100.00
13690;BME280;6917;52.194;9.894;2022-08-19T01:20:29;100081.16;;;17.94;100.00
13690;BME280;6917;52.194;9.894;2022-08-19T01:22:57;100072.44;;;17.92;100.00
13690;BME280;6917;52.194;9.894;2022-08-19T01:25:32;100065.69;;;17.89;100.00
13690;BME280;6917;52.194;9.894;2022-08-19T01:27:59;100066.06;;;17.88;100.00
13690;BME280;6917;52.194;9.894;2022-08-19T01:30:29;100071.50;;;17.80;100.00
13690;BME280;6917;52.194;9.894;2022-08-19T01:32:55;100075.78;;;17.78;100.00
13690;BME280;6917;52.194;9.894;2022-08-19T01:35:23;100073.75;;;17.75;100.00
13690;BME280;6917;52.194;9.894;2022-08-19T01:37:59;100061.06;;;17.70;100.00
13690;BME280;6917;52.194;9.894;2022-08-19T01:40:29;100064.91;;;17.66;100.00
13690;BME280;6917;52.194;9.894;2022-08-19T01:42:56;100054.56;;;17.63;100.00
13690;BME280;6917;52.194;9.894;2022-08-19T01:45:23;100054.88;;;17.58;100.00
13690;BME280;6917;52.194;9.894;2022-08-19T01:47:49;100051.31;;;17.57;100.00
13690;BME280;6917;52.194;9.894;2022-08-19T01:50:15;100052.06;;;17.54;100.00
13690;BME280;6917;52.194;9.894;2022-08-19T01:52:42;100051.25;;;17.53;100.00
13690;BME280;6917;52.194;9.894;2022-08-19T01:55:12;100053.22;;;17.53;100.00
13690;BME280;6917;52.194;9.894;2022-08-19T01:57:39;100058.75;;;17.53;100.00
13690;BME280;6917;52.194;9.894;2022-08-19T02:00:09;100052.91;;;17.58;100.00
13690;BME280;6917;52.194;9.894;2022-08-19T02:02:35;100074.28;;;17.61;100.00
13690;BME280;6917;52.194;9.894;2022-08-19T02:05:00;100065.69;;;17.66;100.00
13690;BME280;6917;52.194;9.894;2022-08-19T02:07:25;100070.50;;;17.69;100.00
13690;BME280;6917;52.194;9.894;2022-08-19T02:09:51;100063.28;;;17.65;100.00
13690;BME280;6917;52.194;9.894;2022-08-19T02:12:16;100061.34;;;17.65;100.00
13690;BME280;6917;52.194;9.894;2022-08-19T02:14:42;100065.25;;;17.64;100.00
13690;BME280;6917;52.194;9.894;2022-08-19T02:17:08;100063.66;;;17.63;100.00
13690;BME280;6917;52.194;9.894;2022-08-19T02:19:33;100048.25;;;17.62;100.00
13690;BME280;6917;52.194;9.894;2022-08-19T02:21:59;100039.94;;;17.62;100.00
13690;BME280;6917;52.194;9.894;2022-08-19T02:24:26;100040.75;;;17.63;100.00
13690;BME280;6917;52.194;9.894;2022-08-19T02:26:52;100041.53;;;17.63;100.00
13690;BME280;6917;52.194;9.894;2022-08-19T02:29:18;100037.19;;;17.62;100.00
13690;BME280;6917;52.194;9.894;2022-08-19T02:31:43;100038.34;;;17.61;100.00
13690;BME280;6917;52.194;9.894;2022-08-19T02:34:09;100045.91;;;17.64;100.00
13690;BME280;6917;52.194;9.894;2022-08-19T02:36:34;100051.44;;;17.64;100.00
13690;BME280;6917;52.194;9.894;2022-08-19T02:38:59;100052.69;;;17.67;100.00
13690;BME280;6917;52.194;9.894;2022-08-19T02:41:28;100050.72;;;17.67;100.00
13690;BME280;6917;52.194;9.894;2022-08-19T02:43:55;100048.03;;;17.71;100.00
13690;BME280;6917;52.194;9.894;2022-08-19T02:46:24;100057.88;;;17.68;100.00
13690;BME280;6917;52.194;9.894;2022-08-19T02:48:53;100063.81;;;17.70;100.00
13690;BME280;6917;52.194;9.894;2022-08-19T02:51:25;100063.28;;;17.65;100.00
13690;BME280;6917;52.194;9.894;2022-08-19T02:53:51;100074.44;;;17.68;100.00
13690;BME280;6917;52.194;9.894;2022-08-19T02:56:17;100071.22;;;17.66;100.00
13690;BME280;6917;52.194;9.894;2022-08-19T02:58:43;100075.56;;;17.67;100.00
13690;BME280;6917;52.194;9.894;2022-08-19T03:01:09;100067.75;;;17.69;100.00
13690;BME280;6917;52.194;9.894;2022-08-19T03:03:36;100076.47;;;17.71;100.00
13690;BME280;6917;52.194;9.894;2022-08-19T03:06:08;100068.91;;;17.68;100.00
13690;BME280;6917;52.194;9.894;2022-08-19T03:08:34;100073.28;;;17.69;100.00
13690;BME280;6917;52.194;9.894;2022-08-19T03:10:59;100072.47;;;17.69;100.00
13690;BME280;6917;52.194;9.894;2022-08-19T03:13:25;100068.53;;;17.70;100.00
13690;BME280;6917;52.194;9.894;2022-08-19T03:15:50;100078.25;;;17.64;100.00
13690;BME280;6917;52.194;9.894;2022-08-19T03:18:16;100079.31;;;17.55;100.00
13690;BME280;6917;52.194;9.894;2022-08-19T03:20:47;100078.09;;;17.53;100.00
13690;BME280;6917;52.194;9.894;2022-08-19T03:23:14;100077.66;;;17.51;100.00
13690;BME280;6917;52.194;9.894;2022-08-19T03:25:42;100070.88;;;17.48;100.00
13690;BME280;6917;52.194;9.894;2022-08-19T03:28:10;100062.22;;;17.50;100.00
13690;BME280;6917;52.194;9.894;2022-08-19T03:30:37;100062.97;;;17.47;100.00
13690;BME280;6917;52.194;9.894;2022-08-19T03:33:04;100065.81;;;17.50;100.00
13690;BME280;6917;52.194;9.894;2022-08-19T03:35:30;100064.72;;;17.55;100.00
13690;BME280;6917;52.194;9.894;2022-08-19T03:37:55;100058.81;;;17.57;100.00
13690;BME280;6917;52.194;9.894;2022-08-19T03:40:21;100065.13;;;17.57;100.00
13690;BME280;6917;52.194;9.894;2022-08-19T03:42:47;100059.19;;;17.55;100.00
13690;BME280;6917;52.194;9.894;2022-08-19T03:45:12;100062.69;;;17.52;100.00
13690;BME280;6917;52.194;9.894;2022-08-19T03:47:37;100056.28;;;17.48;100.00
13690;BME280;6917;52.194;9.894;2022-08-19T03:50:04;100063.34;;;17.45;100.00
13690;BME280;6917;52.194;9.894;2022-08-19T03:52:30;100064.06;;;17.42;100.00
13690;BME280;6917;52.194;9.894;2022-08-19T03:54:55;100063.66;;;17.40;100.00
13690;BME280;6917;52.194;9.894;2022-08-19T03:57:21;100061.53;;;17.34;100.00
13690;BME280;6917;52.194;9.894;2022-08-19T03:59:46;100056.75;;;17.31;100.00
13690;BME280;6917;52.194;9.894;2022-08-19T04:02:13;100055.53;;;17.28;100.00
13690;BME280;6917;52.194;9.894;2022-08-19T04:04:41;100058.66;;;17.27;100.00
13690;BME280;6917;52.194;9.894;2022-08-19T04:07:09;100069.28;;;17.24;100.00
13690;BME280;6917;52.194;9.894;2022-08-19T04:09:35;100065.28;;;17.22;100.00
13690;BME280;6917;52.194;9.894;2022-08-19T04:12:02;100068.31;;;17.17;100.00
13690;BME280;6917;52.194;9.894;2022-08-19T04:14:29;100065.94;;;17.15;100.00
13690;BME280;6917;52.194;9.894;2022-08-19T04:17:00;100053.22;;;17.11;100.00
13690;BME280;6917;52.194;9.894;2022-08-19T04:19:28;100046.19;;;17.13;100.00
13690;BME280;6917;52.194;9.894;2022-08-19T04:21:54;100052.06;;;17.12;100.00
13690;BME280;6917;52.194;9.894;2022-08-19T04:24:21;100054.41;;;17.10;100.00
13690;BME280;6917;52.194;9.894;2022-08-19T04:26:47;100054.75;;;17.08;100.00
13690;BME280;6917;52.194;9.894;2022-08-19T04:29:19;100052.06;;;17.12;100.00
13690;BME280;6917;52.194;9.894;2022-08-19T04:31:47;100064.34;;;17.14;100.00
13690;BME280;6917;52.194;9.894;2022-08-19T04:34:15;100069.44;;;17.12;100.00
13690;BME280;6917;52.194;9.894;2022-08-19T04:36:43;100072.19;;;17.12;100.00
13690;BME280;6917;52.194;9.894;2022-08-19T04:39:16;100078.13;;;17.14;100.00
13690;BME280;6917;52.194;9.894;2022-08-19T04:41:42;100073.41;;;17.15;100.00
13690;BME280;6917;52.194;9.894;2022-08-19T04:44:26;100078.88;;;17.11;100.00
13690;BME280;6917;52.194;9.894;2022-08-19T04:46:56;100080.09;;;17.14;100.00
13690;BME280;6917;52.194;9.894;2022-08-19T04:49:22;100089.63;;;17.16;100.00
13690;BME280;6917;52.194;9.894;2022-08-19T04:51:50;100090.78;;;17.15;100.00
13690;BME280;6917;52.194;9.894;2022-08-19T04:54:17;100090.34;;;17.13;100.00
13690;BME280;6917;52.194;9.894;2022-08-19T04:56:43;100085.25;;;17.15;100.00
13690;BME280;6917;52.194;9.894;2022-08-19T04:59:09;100085.25;;;17.15;100.00
13690;BME280;6917;52.194;9.894;2022-08-19T05:01:36;100079.38;;;17.17;100.00
13690;BME280;6917;52.194;9.894;2022-08-19T05:04:04;100082.50;;;17.15;100.00
13690;BME280;6917;52.194;9.894;2022-08-19T05:06:31;100076.53;;;17.13;100.00
13690;BME280;6917;52.194;9.894;2022-08-19T05:08:59;100074.56;;;17.14;100.00
13690;BME280;6917;52.194;9.894;2022-08-19T05:11:27;100067.03;;;17.11;100.00
13690;BME280;6917;52.194;9.894;2022-08-19T05:13:53;100062.25;;;17.08;100.00
13690;BME280;6917;52.194;9.894;2022-08-19T05:16:21;100071.75;;;17.10;100.00
13690;BME280;6917;52.194;9.894;2022-08-19T05:18:47;100070.53;;;17.08;100.00
13690;BME280;6917;52.194;9.894;2022-08-19T05:21:32;100066.16;;;17.07;100.00
13690;BME280;6917;52.194;9.894;2022-08-19T05:24:17;100064.53;;;17.06;100.00
13690;BME280;6917;52.194;9.894;2022-08-19T05:26:46;100065.81;;;17.08;100.00
13690;BME280;6917;52.194;9.894;2022-08-19T05:29:13;100070.97;;;17.10;100.00
13690;BME280;6917;52.194;9.894;2022-08-19T05:31:39;100089.06;;;17.07;100.00
13690;BME280;6917;52.194;9.894;2022-08-19T05:34:05;100088.22;;;17.07;100.00
13690;BME280;6917;52.194;9.894;2022-08-19T05:36:40;100089.84;;;17.08;100.00
13690;BME280;6917;52.194;9.894;2022-08-19T05:39:10;100092.63;;;17.08;100.00
13690;BME280;6917;52.194;9.894;2022-08-19T05:41:35;100095.06;;;17.13;100.00
13690;BME280;6917;52.194;9.894;2022-08-19T05:44:03;100093.91;;;17.14;100.00
13690;BME280;6917;52.194;9.894;2022-08-19T05:46:31;100071.81;;;17.14;100.00
13690;BME280;6917;52.194;9.894;2022-08-19T05:48:56;100078.44;;;17.09;100.00
13690;BME280;6917;52.194;9.894;2022-08-19T05:51:23;100082.00;;;17.10;100.00
13690;BME280;6917;52.194;9.894;2022-08-19T05:53:48;100092.31;;;17.13;100.00
13690;BME280;6917;52.194;9.894;2022-08-19T05:56:15;100093.91;;;17.14;100.00
13690;BME280;6917;52.194;9.894;2022-08-19T05:58:42;100083.34;;;17.19;100.00
13690;BME280;6917;52.194;9.894;2022-08-19T06:01:12;100080.16;;;17.17;100.00
13690;BME280;6917;52.194;9.894;2022-08-19T06:03:38;100085.75;;;17.21;100.00
13690;BME280;6917;52.194;9.894;2022-08-19T06:06:05;100079.09;;;17.22;100.00
13690;BME280;6917;52.194;9.894;2022-08-19T06:08:31;100083.50;;;17.27;100.00
13690;BME280;6917;52.194;9.894;2022-08-19T06:10:57;100085.09;;;17.28;100.00
13690;BME280;6917;52.194;9.894;2022-08-19T06:13:23;100090.63;;;17.28;100.00
13690;BME280;6917;52.194;9.894;2022-08-19T06:15:50;100096.44;;;17.22;100.00
13690;BME280;6917;52.194;9.894;2022-08-19T06:18:16;100104.16;;;17.13;100.00
13690;BME280;6917;52.194;9.894;2022-08-19T06:20:42;100103.72;;;17.11;100.00
13690;BME280;6917;52.194;9.894;2022-08-19T06:23:08;100116.78;;;17.14;100.00
13690;BME280;6917;52.194;9.894;2022-08-19T06:25:34;100131.75;;;17.13;100.00
13690;BME280;6917;52.194;9.894;2022-08-19T06:27:59;100117.09;;;17.09;100.00
13690;BME280;6917;52.194;9.894;2022-08-19T06:30:25;100125.38;;;17.09;100.00
13690;BME280;6917;52.194;9.894;2022-08-19T06:32:50;100119.84;;;17.09;100.00
13690;BME280;6917;52.194;9.894;2022-08-19T06:35:16;100117.53;;;17.11;100.00
13690;BME280;6917;52.194;9.894;2022-08-19T06:37:41;100121.56;;;17.17;100.00
13690;BME280;6917;52.194;9.894;2022-08-19T06:40:08;100122.00;;;17.19;100.00
13690;BME280;6917;52.194;9.894;2022-08-19T06:42:36;100130.22;;;17.16;100.00
13690;BME280;6917;52.194;9.894;2022-08-19T06:45:04;100136.34;;;17.25;100.00
13690;BME280;6917;52.194;9.894;2022-08-19T06:47:30;100133.72;;;17.32;100.00
13690;BME280;6917;52.194;9.894;2022-08-19T06:49:58;100130.16;;;17.32;100.00
13690;BME280;6917;52.194;9.894;2022-08-19T06:52:27;100136.19;;;17.37;100.00
13690;BME280;6917;52.194;9.894;2022-08-19T06:54:52;100145.69;;;17.40;100.00
13690;BME280;6917;52.194;9.894;2022-08-19T06:57:17;100158.41;;;17.44;100.00
13690;BME280;6917;52.194;9.894;2022-08-19T06:59:42;100160.69;;;17.39;100.00
13690;BME280;6917;52.194;9.894;2022-08-19T07:02:08;100169.09;;;17.46;100.00
13690;BME280;6917;52.194;9.894;2022-08-19T07:04:35;100164.44;;;17.50;100.00
13690;BME280;6917;52.194;9.894;2022-08-19T07:07:08;100166.41;;;17.49;100.00
13690;BME280;6917;52.194;9.894;2022-08-19T07:09:37;100171.28;;;17.56;100.00
13690;BME280;6917;52.194;9.894;2022-08-19T07:12:04;100173.38;;;17.63;100.00
13690;BME280;6917;52.194;9.894;2022-08-19T07:14:31;100180.25;;;17.69;100.00
13690;BME280;6917;52.194;9.894;2022-08-19T07:16:57;100179.13;;;17.73;100.00
13690;BME280;6917;52.194;9.894;2022-08-19T07:19:25;100181.94;;;17.77;100.00
13690;BME280;6917;52.194;9.894;2022-08-19T07:21:52;100183.91;;;17.76;100.00
13690;BME280;6917;52.194;9.894;2022-08-19T07:24:19;100191.34;;;17.72;100.00
13690;BME280;6917;52.194;9.894;2022-08-19T07:26:45;100200.00;;;17.71;100.00
13690;BME280;6917;52.194;9.894;2022-08-19T07:29:12;100196.94;;;17.76;100.00
13690;BME280;6917;52.194;9.894;2022-08-19T07:31:38;100201.09;;;17.86;100.00
13690;BME280;6917;52.194;9.894;2022-08-19T07:34:05;100207.41;;;17.86;100.00
13690;BME280;6917;52.194;9.894;2022-08-19T07:36:36;100213.00;;;17.90;100.00
13690;BME280;6917;52.194;9.894;2022-08-19T07:39:06;100221.13;;;18.02;100.00
13690;BME280;6917;52.194;9.894;2022-08-19T07:41:32;100227.38;;;17.99;100.00
13690;BME280;6917;52.194;9.894;2022-08-19T07:43:59;100233.34;;;18.01;100.00
13690;BME280;6917;52.194;9.894;2022-08-19T07:46:30;100242.94;;;18.07;100.00
13690;BME280;6917;52.194;9.894;2022-08-19T07:48:56;100240.31;;;18.14;100.00
13690;BME280;6917;52.194;9.894;2022-08-19T07:51:21;100231.31;;;18.21;100.00
13690;BME280;6917;52.194;9.894;2022-08-19T07:53:48;100231.03;;;18.26;100.00
13690;BME280;6917;52.194;9.894;2022-08-19T07:56:15;100231.47;;;18.28;100.00
13690;BME280;6917;52.194;9.894;2022-08-19T07:58:43;100236.81;;;18.17;100.00
13690;BME280;6917;52.194;9.894;2022-08-19T08:01:12;100240.88;;;18.23;100.00
13690;BME280;6917;52.194;9.894;2022-08-19T08:03:38;100233.81;;;18.26;100.00
13690;BME280;6917;52.194;9.894;2022-08-19T08:06:22;100246.53;;;18.30;100.00
13690;BME280;6917;52.194;9.894;2022-08-19T08:09:07;100240.75;;;18.39;100.00
13690;BME280;6917;52.194;9.894;2022-08-19T08:11:46;100232.19;;;18.48;100.00
13690;BME280;6917;52.194;9.894;2022-08-19T08:14:18;100242.50;;;18.51;100.00
13690;BME280;6917;52.194;9.894;2022-08-19T08:16:44;100241.72;;;18.50;100.00
13690;BME280;6917;52.194;9.894;2022-08-19T08:19:12;100241.66;;;18.47;99.08
13690;BME280;6917;52.194;9.894;2022-08-19T08:21:39;100235.19;;;18.62;100.00
13690;BME280;6917;52.194;9.894;2022-08-19T08:24:05;100242.91;;;18.72;99.19
13690;BME280;6917;52.194;9.894;2022-08-19T08:26:30;100224.94;;;18.85;98.07
13690;BME280;6917;52.194;9.894;2022-08-19T08:28:55;100234.66;;;19.02;96.09
13690;BME280;6917;52.194;9.894;2022-08-19T08:31:21;100232.84;;;19.13;94.26
13690;BME280;6917;52.194;9.894;2022-08-19T08:33:48;100233.44;;;19.26;93.00
13690;BME280;6917;52.194;9.894;2022-08-19T08:36:14;100235.81;;;19.27;90.26
13690;BME280;6917;52.194;9.894;2022-08-19T08:38:41;100244.69;;;19.40;90.54
13690;BME280;6917;52.194;9.894;2022-08-19T08:44:03;100252.56;;;19.38;88.64
13690;BME280;6917;52.194;9.894;2022-08-19T08:46:41;100249.06;;;19.41;87.70
13690;BME280;6917;52.194;9.894;2022-08-19T08:49:26;100260.22;;;19.48;85.59
13690;BME280;6917;52.194;9.894;2022-08-19T08:52:06;100260.66;;;19.50;85.93
13690;BME280;6917;52.194;9.894;2022-08-19T08:54:37;100259.13;;;19.53;85.77
13690;BME280;6917;52.194;9.894;2022-08-19T08:57:09;100264.16;;;19.74;86.71
13690;BME280;6917;52.194;9.894;2022-08-19T08:59:38;100255.38;;;19.68;85.20
13690;BME280;6917;52.194;9.894;2022-08-19T09:02:04;100259.25;;;19.64;85.95
13690;BME280;6917;52.194;9.894;2022-08-19T09:04:29;100250.97;;;19.67;85.94
13690;BME280;6917;52.194;9.894;2022-08-19T09:07:20;100252.53;;;19.65;84.35
13690;BME280;6917;52.194;9.894;2022-08-19T09:09:52;100238.59;;;19.57;82.79
13690;BME280;6917;52.194;9.894;2022-08-19T09:14:58;100238.59;;;19.57;84.57
13690;BME280;6917;52.194;9.894;2022-08-19T09:17:26;100238.66;;;19.61;82.82
13690;BME280;6917;52.194;9.894;2022-08-19T09:20:06;100245.50;;;19.71;83.52
13690;BME280;6917;52.194;9.894;2022-08-19T09:22:40;100244.91;;;19.54;82.24
13690;BME280;6917;52.194;9.894;2022-08-19T09:25:07;100247.22;;;19.52;83.20
13690;BME280;6917;52.194;9.894;2022-08-19T09:27:33;100256.69;;;19.51;83.66
13690;BME280;6917;52.194;9.894;2022-08-19T09:30:00;100241.38;;;19.57;84.25
13690;BME280;6917;52.194;9.894;2022-08-19T09:32:26;100252.66;;;19.72;81.80
13690;BME280;6917;52.194;9.894;2022-08-19T09:34:52;100253.81;;;19.71;80.99
13690;BME280;6917;52.194;9.894;2022-08-19T09:37:20;100253.19;;;19.84;81.27
13690;BME280;6917;52.194;9.894;2022-08-19T09:39:45;100255.66;;;19.93;81.17
13690;BME280;6917;52.194;9.894;2022-08-19T09:42:10;100257.41;;;20.08;79.70
13690;BME280;6917;52.194;9.894;2022-08-19T09:44:39;100254.44;;;19.90;77.32
13690;BME280;6917;52.194;9.894;2022-08-19T09:47:05;100250.59;;;20.02;79.01
13690;BME280;6917;52.194;9.894;2022-08-19T09:49:31;100239.69;;;20.20;79.81
13690;BME280;6917;52.194;9.894;2022-08-19T09:51:56;100238.75;;;20.42;79.12
13690;BME280;6917;52.194;9.894;2022-08-19T09:54:23;100232.16;;;20.61;76.88
13690;BME280;6917;52.194;9.894;2022-08-19T09:56:48;100234.94;;;20.61;76.09
13690;BME280;6917;52.194;9.894;2022-08-19T09:59:14;100240.53;;;20.68;76.35
13690;BME280;6917;52.194;9.894;2022-08-19T10:01:39;100231.19;;;20.91;78.03
13690;BME280;6917;52.194;9.894;2022-08-19T10:04:05;100231.25;;;20.98;76.83
13690;BME280;6917;52.194;9.894;2022-08-19T10:06:35;100225.44;;;20.62;75.86
13690;BME280;6917;52.194;9.894;2022-08-19T10:09:02;100227.72;;;20.53;76.63
13690;BME280;6917;52.194;9.894;2022-08-19T10:11:29;100232.59;;;20.67;75.34
13690;BME280;6917;52.194;9.894;2022-08-19T10:13:54;100221.19;;;20.83;75.83
13690;BME280;6917;52.194;9.894;2022-08-19T10:16:21;100223.34;;;21.07;75.29
13690;BME280;6917;52.194;9.894;2022-08-19T10:18:49;100221.81;;;21.13;74.03
13690;BME280;6917;52.194;9.894;2022-08-19T10:21:19;100228.09;;;21.03;73.82
13690;BME280;6917;52.194;9.894;2022-08-19T10:23:46;100217.88;;;21.21;72.17
13690;BME280;6917;52.194;9.894;2022-08-19T10:26:21;100222.00;;;21.45;71.82
13690;BME280;6917;52.194;9.894;2022-08-19T10:28:46;100216.84;;;21.54;70.37
13690;BME280;6917;52.194;9.894;2022-08-19T10:31:15;100212.50;;;21.53;68.57
13690;BME280;6917;52.194;9.894;2022-08-19T10:33:41;100203.75;;;21.55;67.27
13690;BME280;6917;52.194;9.894;2022-08-19T10:36:10;100189.91;;;21.65;68.32
13690;BME280;6917;52.194;9.894;2022-08-19T10:38:36;100192.31;;;21.81;69.15
13690;BME280;6917;52.194;9.894;2022-08-19T10:43:38;100191.91;;;21.79;68.46
13690;BME280;6917;52.194;9.894;2022-08-19T10:46:13;100183.19;;;21.81;67.76
13690;BME280;6917;52.194;9.894;2022-08-19T10:48:40;100186.38;;;21.83;65.36
13690;BME280;6917;52.194;9.894;2022-08-19T10:51:06;100185.97;;;21.81;64.72
13690;BME280;6917;52.194;9.894;2022-08-19T10:53:50;100182.03;;;21.92;64.90
13690;BME280;6917;52.194;9.894;2022-08-19T10:56:17;100184.03;;;22.03;63.78
13690;BME280;6917;52.194;9.894;2022-08-19T10:59:03;100176.13;;;22.26;64.85
13690;BME280;6917;52.194;9.894;2022-08-19T11:01:30;100184.09;;;22.31;63.59
13690;BME280;6917;52.194;9.894;2022-08-19T11:04:00;100183.28;;;22.31;62.52
13690;BME280;6917;52.194;9.894;2022-08-19T11:06:26;100168.16;;;22.39;61.00
13690;BME280;6917;52.194;9.894;2022-08-19T11:08:53;100164.19;;;22.58;62.26
13690;BME280;6917;52.194;9.894;2022-08-19T11:11:19;100157.84;;;22.14;61.57
13690;BME280;6917;52.194;9.894;2022-08-19T11:13:45;100166.56;;;22.55;65.09
13690;BME280;6917;52.194;9.894;2022-08-19T11:16:17;100157.38;;;22.69;63.58
13690;BME280;6917;52.194;9.894;2022-08-19T11:18:45;100158.59;;;22.75;62.55
13690;BME280;6917;52.194;9.894;2022-08-19T11:23:43;100148.25;;;22.54;61.75
13690;BME280;6917;52.194;9.894;2022-08-19T11:26:09;100150.25;;;22.86;61.71
13690;BME280;6917;52.194;9.894;2022-08-19T11:28:35;100151.03;;;22.87;61.71
13690;BME280;6917;52.194;9.894;2022-08-19T11:31:01;100153.00;;;22.75;60.18
13690;BME280;6917;52.194;9.894;2022-08-19T11:33:29;100155.41;;;22.77;60.44
13690;BME280;6917;52.194;9.894;2022-08-19T11:35:57;100154.56;;;23.01;60.29
13690;BME280;6917;52.194;9.894;2022-08-19T11:38:23;100156.47;;;23.22;61.51
13690;BME280;6917;52.194;9.894;2022-08-19T11:40:59;100153.69;;;23.22;58.83
13690;BME280;6917;52.194;9.894;2022-08-19T11:43:25;100153.75;;;23.15;58.98
13690;BME280;6917;52.194;9.894;2022-08-19T11:45:55;100147.72;;;23.24;59.37
13690;BME280;6917;52.194;9.894;2022-08-19T11:48:21;100145.25;;;23.43;58.94
13690;BME280;6917;52.194;9.894;2022-08-19T11:50:52;100140.78;;;23.53;58.14
13690;BME280;6917;52.194;9.894;2022-08-19T11:53:20;100136.81;;;23.54;56.12
13690;BME280;6917;52.194;9.894;2022-08-19T11:55:49;100118.84;;;23.66;55.80
13690;BME280;6917;52.194;9.894;2022-08-19T11:58:17;100130.34;;;23.75;55.18
13690;BME280;6917;52.194;9.894;2022-08-19T12:00:43;100127.19;;;23.73;56.44
13690;BME280;6917;52.194;9.894;2022-08-19T12:03:11;100123.94;;;23.78;54.75
13690;BME280;6917;52.194;9.894;2022-08-19T12:05:38;100137.38;;;23.94;55.43
13690;BME280;6917;52.194;9.894;2022-08-19T12:08:04;100128.19;;;23.97;54.63
13690;BME280;6917;52.194;9.894;2022-08-19T12:10:29;100136.94;;;23.99;55.58
13690;BME280;6917;52.194;9.894;2022-08-19T12:12:55;100146.13;;;23.96;55.04
13690;BME280;6917;52.194;9.894;2022-08-19T12:15:20;100142.09;;;24.04;54.27
13690;BME280;6917;52.194;9.894;2022-08-19T12:17:45;100139.72;;;23.99;56.72
13690;BME280;6917;52.194;9.894;2022-08-19T12:20:13;100142.75;;;24.22;54.66
13690;BME280;6917;52.194;9.894;2022-08-19T12:22:41;100135.34;;;24.01;54.89
13690;BME280;6917;52.194;9.894;2022-08-19T12:25:08;100128.38;;;24.24;54.27
13690;BME280;6917;52.194;9.894;2022-08-19T12:27:34;100135.53;;;24.32;53.81
13690;BME280;6917;52.194;9.894;2022-08-19T12:30:00;100128.75;;;24.29;52.77
13690;BME280;6917;52.194;9.894;2022-08-19T12:32:26;100129.63;;;24.19;52.99
13690;BME280;6917;52.194;9.894;2022-08-19T12:34:52;100131.94;;;24.31;53.40
13690;BME280;6917;52.194;9.894;2022-08-19T12:37:17;100131.31;;;24.54;52.87
13690;BME280;6917;52.194;9.894;2022-08-19T12:39:43;100129.53;;;24.75;51.89
13690;BME280;6917;52.194;9.894;2022-08-19T12:42:11;100131.59;;;24.67;51.01
13690;BME280;6917;52.194;9.894;2022-08-19T12:44:38;100133.53;;;24.74;50.98
13690;BME280;6917;52.194;9.894;2022-08-19T12:47:04;100131.53;;;24.74;50.66
13690;BME280;6917;52.194;9.894;2022-08-19T12:49:31;100137.44;;;24.80;52.11
13690;BME280;6917;52.194;9.894;2022-08-19T12:51:59;100131.09;;;24.76;50.79
13690;BME280;6917;52.194;9.894;2022-08-19T12:54:25;100126.41;;;24.66;50.41
13690;BME280;6917;52.194;9.894;2022-08-19T12:56:51;100126.97;;;24.50;50.23
13690;BME280;6917;52.194;9.894;2022-08-19T12:59:16;100120.50;;;24.60;51.28
13690;BME280;6917;52.194;9.894;2022-08-19T13:01:44;100126.75;;;24.71;50.44
13690;BME280;6917;52.194;9.894;2022-08-19T13:04:09;100123.28;;;24.60;49.85
13690;BME280;6917;52.194;9.894;2022-08-19T13:06:35;100122.09;;;24.57;50.73